Time;durP1;ratioP1;P1;durP2;ratioP2;P2;SDS_P1;SDS_P2;PMS_P1;PMS_P2;Temp;Humidity;BMP_temperature;BMP_pressure;BME280_temperature;BME280_humidity;BME280_pressure;Samples;Min_cycle;Max_cycle;Signal;HPM_P1;HPM_P2
2021/12/14 00:01:35;;;;;;;27.13;15.93;;;;;;;14.13;58.58;102297.25;6093366;23;96766;-76
2021/12/14 00:04:07;;;;;;;37.45;18.08;;;;;;;14.13;58.38;102294.59;6091208;23;98917;-75
2021/12/14 00:06:34;;;;;;;32.30;16.85;;;;;;;14.03;58.78;102309.06;6092292;23;98740;-76
2021/12/14 00:09:02;;;;;;;30.85;17.08;;;;;;;14.02;58.69;102298.44;6093654;23;97007;-76
2021/12/14 00:11:51;;;;;;;27.38;16.05;;;;;;;14.14;58.34;102299.00;6092716;23;97185;-76
2021/12/14 00:15:02;;;;;;;30.42;15.88;;;;;;;13.94;58.66;102304.81;6092368;23;98864;-77
2021/12/14 00:17:17;;;;;;;29.00;15.32;;;;;;;14.12;58.10;102305.25;6092385;23;98559;-76
2021/12/14 00:19:45;;;;;;;28.60;16.13;;;;;;;14.03;58.21;102306.41;6093133;23;97359;-75
2021/12/14 00:22:23;;;;;;;27.65;15.98;;;;;;;13.87;58.30;102305.88;6104754;23;96738;-76
2021/12/14 00:24:49;;;;;;;27.08;15.82;;;;;;;14.09;57.70;102306.25;6116396;23;98896;-76
2021/12/14 00:27:18;;;;;;;26.30;14.93;;;;;;;14.01;57.69;102307.34;6106591;23;97448;-77
2021/12/14 00:29:47;;;;;;;30.77;16.10;;;;;;;13.95;58.42;102306.56;6092309;23;96631;-77
2021/12/14 00:32:20;;;;;;;25.27;15.45;;;;;;;14.04;57.95;102293.97;6092592;23;96941;-77
2021/12/14 00:34:50;;;;;;;26.27;15.93;;;;;;;14.00;57.89;102289.63;6092654;23;102670;-78
2021/12/14 00:37:21;;;;;;;26.48;15.30;;;;;;;14.17;57.32;102304.25;6091698;23;100107;-76
2021/12/14 00:39:50;;;;;;;31.08;15.93;;;;;;;13.95;58.01;102295.94;6092416;23;96740;-78
2021/12/14 00:42:18;;;;;;;24.77;15.85;;;;;;;14.06;57.80;102306.28;6091806;23;96764;-77
2021/12/14 00:44:47;;;;;;;27.20;16.02;;;;;;;14.00;57.97;102306.44;6092804;23;99184;-78
2021/12/14 00:47:13;;;;;;;24.40;15.93;;;;;;;14.15;57.46;102299.88;6091648;23;98832;-77
2021/12/14 00:49:41;;;;;;;27.55;15.38;;;;;;;14.14;57.57;102303.44;6092633;23;96673;-77
2021/12/14 00:52:12;;;;;;;23.55;15.82;;;;;;;14.02;57.59;102298.44;6092481;23;96826;-76
2021/12/14 00:54:39;;;;;;;24.10;15.43;;;;;;;14.06;57.00;102297.44;6092229;23;99129;-76
2021/12/14 00:57:07;;;;;;;26.50;15.80;;;;;;;13.96;56.97;102295.03;6091846;23;98035;-76
2021/12/14 00:59:34;;;;;;;25.23;16.00;;;;;;;13.85;57.56;102297.06;6092409;23;96680;-76
2021/12/14 01:02:05;;;;;;;27.13;16.30;;;;;;;14.07;57.34;102304.50;6092512;23;96779;-76
2021/12/14 01:04:34;;;;;;;27.05;16.63;;;;;;;13.86;57.85;102306.78;6090947;23;98830;-77
2021/12/14 01:07:03;;;;;;;31.35;16.27;;;;;;;13.99;57.53;102294.06;6091411;23;98946;-77
2021/12/14 01:09:36;;;;;;;28.50;16.67;;;;;;;13.89;57.14;102300.53;6091752;23;96602;-78
2021/12/14 01:12:10;;;;;;;24.50;15.05;;;;;;;13.73;57.91;102307.13;6091775;23;96589;-76
2021/12/14 01:14:46;;;;;;;25.83;16.15;;;;;;;13.92;57.41;102295.13;6092257;23;98880;-77
2021/12/14 01:17:26;;;;;;;;;;;;;;;14.16;57.26;102304.28;6092081;23;98709;-76
2021/12/14 01:19:57;;;;;;;25.38;15.70;;;;;;;14.07;56.94;102296.53;6093178;23;96994;-76
2021/12/14 01:22:38;;;;;;;25.27;16.65;;;;;;;13.90;57.16;102300.50;6094061;23;96716;-76
2021/12/14 01:25:14;;;;;;;25.27;15.38;;;;;;;13.98;56.77;102301.16;6092062;23;98991;-76
2021/12/14 01:27:47;;;;;;;23.20;14.82;;;;;;;13.92;57.07;102297.78;6092069;23;99126;-76
2021/12/14 01:30:20;;;;;;;23.33;15.50;;;;;;;13.93;56.85;102295.09;6091855;23;97178;-78
2021/12/14 01:32:49;;;;;;;26.52;14.40;;;;;;;13.98;56.72;102292.31;6091796;23;96673;-76
2021/12/14 01:35:26;;;;;;;23.38;15.50;;;;;;;13.86;56.77;102296.16;6092316;23;99197;-77
2021/12/14 01:38:04;;;;;;;23.95;14.52;;;;;;;13.84;56.61;102289.16;6092187;23;98823;-76
2021/12/14 01:41:01;;;;;;;20.70;14.35;;;;;;;13.80;56.95;102288.34;6089711;23;96935;-76
2021/12/14 01:43:33;;;;;;;19.48;13.75;;;;;;;13.89;56.31;102287.25;6091719;23;97075;-78
2021/12/14 01:46:03;;;;;;;25.55;14.38;;;;;;;13.78;56.14;102290.19;6089551;23;98823;-77
2021/12/14 01:48:30;;;;;;;20.20;13.65;;;;;;;13.91;56.33;102293.41;6092060;23;98934;-78
2021/12/14 01:51:00;;;;;;;20.85;14.10;;;;;;;13.77;56.35;102285.78;6091088;23;97035;-77
2021/12/14 01:53:27;;;;;;;21.50;12.30;;;;;;;13.87;56.13;102295.25;6091043;23;96943;-76
2021/12/14 01:55:59;;;;;;;18.15;12.75;;;;;;;13.87;55.98;102281.97;6089679;23;99248;-75
2021/12/14 01:58:33;;;;;;;20.52;12.57;;;;;;;13.94;55.88;102283.56;6091850;23;98796;-76
2021/12/14 02:01:06;;;;;;;20.23;12.57;;;;;;;13.92;55.60;102282.72;6092407;23;96860;-75
2021/12/14 02:03:35;;;;;;;18.83;12.32;;;;;;;13.90;55.41;102279.25;6092100;23;97118;-76
2021/12/14 02:06:02;;;;;;;20.30;12.02;;;;;;;13.55;56.38;102285.41;6095656;23;101643;-77
2021/12/14 02:08:34;;;;;;;20.10;12.27;;;;;;;13.69;56.28;102274.47;6100140;23;97804;-77
2021/12/14 02:11:06;;;;;;;17.63;11.85;;;;;;;13.68;56.26;102264.75;6092547;23;96623;-76
2021/12/14 02:13:35;;;;;;;18.10;12.18;;;;;;;13.76;56.32;102260.13;6092580;23;96651;-76
2021/12/14 02:16:04;;;;;;;17.40;11.38;;;;;;;13.78;55.98;102262.75;6104826;23;98926;-75
2021/12/14 02:18:32;;;;;;;18.33;11.80;;;;;;;13.91;55.93;102261.53;6108706;23;97767;-76
2021/12/14 02:21:03;;;;;;;17.60;11.30;;;;;;;13.71;55.48;102256.72;6097083;23;96622;-76
2021/12/14 02:23:31;;;;;;;18.25;11.98;;;;;;;13.70;55.43;102251.44;6092362;23;97121;-74
2021/12/14 02:26:01;;;;;;;18.85;12.02;;;;;;;13.72;55.87;102254.94;6091386;23;98883;-78
2021/12/14 02:28:28;;;;;;;17.52;11.80;;;;;;;13.85;55.68;102249.25;6092150;23;98840;-76
2021/12/14 02:30:57;;;;;;;15.68;11.55;;;;;;;13.73;55.21;102248.69;6093661;23;96681;-77
2021/12/14 02:33:28;;;;;;;14.68;10.70;;;;;;;13.56;55.98;102249.09;6092733;23;96843;-76
2021/12/14 02:35:55;;;;;;;17.17;10.20;;;;;;;13.46;56.18;102258.19;6092152;23;99079;-76
2021/12/14 02:38:23;;;;;;;15.85;10.60;;;;;;;13.60;55.83;102256.06;6092622;23;98849;-76
2021/12/14 02:40:57;;;;;;;17.45;10.85;;;;;;;13.61;55.57;102247.19;6092033;23;96700;-78
2021/12/14 02:43:27;;;;;;;20.52;10.57;;;;;;;13.63;55.62;102250.72;6093822;23;97031;-75
2021/12/14 02:46:01;;;;;;;15.52;10.45;;;;;;;13.60;55.67;102248.09;6093491;23;100260;-79
2021/12/14 02:48:27;;;;;;;15.45;10.13;;;;;;;13.63;55.36;102255.13;6095979;23;99397;-76
2021/12/14 02:50:54;;;;;;;17.58;10.32;;;;;;;13.60;55.40;102242.78;6095331;23;96618;-75
2021/12/14 02:53:20;;;;;;;16.10;10.52;;;;;;;13.48;55.36;102248.41;6093913;23;96946;-76
2021/12/14 02:55:48;;;;;;;16.67;11.52;;;;;;;13.68;55.14;102240.84;6093513;23;99099;-77
2021/12/14 02:58:15;;;;;;;16.98;11.48;;;;;;;13.82;54.88;102230.75;6091905;23;98750;-76
2021/12/14 03:00:46;;;;;;;15.48;9.75;;;;;;;13.77;54.83;102239.75;6093554;23;97065;-75
2021/12/14 03:03:16;;;;;;;13.98;10.13;;;;;;;13.49;55.33;102229.78;6093440;23;96905;-76
2021/12/14 03:05:47;;;;;;;16.50;10.15;;;;;;;13.62;55.27;102232.16;6092059;23;98123;-76
2021/12/14 03:08:19;;;;;;;15.57;9.73;;;;;;;13.75;54.96;102239.78;6091968;23;98817;-76
2021/12/14 03:11:10;;;;;;;14.95;10.00;;;;;;;13.52;55.20;102235.00;6092125;23;96684;-75
2021/12/14 03:13:44;;;;;;;13.65;9.60;;;;;;;13.53;55.51;102227.91;6092232;23;96868;-77
2021/12/14 03:16:16;;;;;;;14.48;9.65;;;;;;;13.56;55.68;102227.84;6091368;23;99269;-76
2021/12/14 03:18:49;;;;;;;16.23;9.55;;;;;;;13.72;54.39;102221.25;6091457;22;98895;-73
2021/12/14 03:21:22;;;;;;;16.10;9.32;;;;;;;13.59;54.67;102227.78;6089783;23;97055;-75
2021/12/14 03:23:51;;;;;;;14.32;9.27;;;;;;;13.37;54.57;102214.16;6092771;23;96717;-74
2021/12/14 03:26:23;;;;;;;17.50;9.95;;;;;;;13.21;55.67;102233.13;6090770;23;99049;-75
2021/12/14 03:28:53;;;;;;;12.02;9.50;;;;;;;13.45;55.28;102228.13;6092132;23;98810;-75
2021/12/14 03:31:27;;;;;;;17.85;9.52;;;;;;;13.54;54.82;102227.00;6090811;23;97510;-75
2021/12/14 03:34:00;;;;;;;15.43;9.68;;;;;;;13.47;55.07;102215.66;6093331;23;96721;-75
2021/12/14 03:36:30;;;;;;;14.82;9.57;;;;;;;13.47;54.97;102220.97;6091806;23;98848;-74
2021/12/14 03:39:04;;;;;;;14.25;9.40;;;;;;;13.50;54.50;102214.72;6095724;23;98912;-74
2021/12/14 03:41:34;;;;;;;14.63;9.00;;;;;;;13.36;54.95;102206.22;6099273;23;96700;-74
2021/12/14 03:44:05;;;;;;;16.35;9.77;;;;;;;13.32;55.51;102215.19;6101725;23;96699;-75
2021/12/14 03:46:34;;;;;;;19.60;10.38;;;;;;;13.38;55.27;102207.06;6116617;23;97952;-74
2021/12/14 03:49:04;;;;;;;14.43;9.40;;;;;;;13.48;54.88;102205.91;6116767;23;98053;-74
2021/12/14 03:51:30;;;;;;;13.68;9.60;;;;;;;13.42;54.97;102204.28;6111075;23;96930;-75
2021/12/14 03:53:58;;;;;;;16.30;9.50;;;;;;;13.27;54.47;102206.44;6110184;23;96463;-74
2021/12/14 03:56:26;;;;;;;16.77;9.75;;;;;;;13.61;54.26;102201.19;6107856;23;99449;-74
2021/12/14 03:58:54;;;;;;;19.90;11.93;;;;;;;13.65;54.29;102201.09;6108603;23;98222;-74
2021/12/14 04:01:25;;;;;;;15.23;9.90;;;;;;;13.61;54.16;102194.09;6098848;23;96524;-75
2021/12/14 04:03:56;;;;;;;16.20;11.15;;;;;;;13.72;53.70;102181.41;6091873;23;96770;-76
2021/12/14 04:06:23;;;;;;;16.60;10.18;;;;;;;13.64;54.35;102182.53;6090643;23;99207;-74
2021/12/14 04:08:51;;;;;;;13.93;9.70;;;;;;;13.38;54.31;102184.06;6091542;23;99239;-74
2021/12/14 04:11:18;;;;;;;15.90;10.48;;;;;;;13.43;54.29;102170.66;6091535;23;96739;-74
2021/12/14 04:13:47;;;;;;;16.83;9.98;;;;;;;13.54;54.23;102168.59;6091190;23;96930;-74
2021/12/14 04:16:18;;;;;;;15.25;9.90;;;;;;;13.58;54.13;102159.66;6101951;23;99520;-73
2021/12/14 04:18:45;;;;;;;15.90;9.82;;;;;;;13.55;53.97;102155.28;6098239;23;97766;-74
2021/12/14 04:21:11;;;;;;;16.73;9.73;;;;;;;13.45;53.77;102155.56;6091718;23;96707;-74
2021/12/14 04:23:44;;;;;;;16.55;10.32;;;;;;;13.43;54.00;102144.09;6094542;23;96876;-73
2021/12/14 04:26:13;;;;;;;14.88;9.90;;;;;;;13.42;54.10;102139.69;6115827;23;98182;-74
2021/12/14 04:28:42;;;;;;;16.98;10.02;;;;;;;13.34;54.16;102136.34;6115318;23;97699;-73
2021/12/14 04:31:09;;;;;;;19.40;10.68;;;;;;;13.54;54.18;102139.38;6113261;23;96723;-73
2021/12/14 04:33:41;;;;;;;19.63;10.55;;;;;;;13.47;53.86;102145.75;6112727;23;96600;-73
2021/12/14 04:36:12;;;;;;;17.23;11.07;;;;;;;13.42;53.90;102143.22;6092299;23;98137;-74
2021/12/14 04:38:48;;;;;;;18.42;10.32;;;;;;;13.67;53.33;102137.28;6091576;23;98952;-74
2021/12/14 04:52:22;;;;;;;16.48;10.65;;;;;;;13.42;53.42;102140.56;6090980;23;97303;-73
2021/12/14 04:54:51;;;;;;;19.02;10.70;;;;;;;13.44;53.87;102143.19;6090172;23;96922;-73
2021/12/14 04:57:23;;;;;;;18.42;10.93;;;;;;;13.33;53.84;102150.53;6092062;23;99388;-74
2021/12/14 04:59:51;;;;;;;25.15;11.65;;;;;;;13.20;54.04;102142.00;6091980;23;97653;-73
2021/12/14 05:02:21;;;;;;;16.83;10.63;;;;;;;13.43;53.98;102139.66;6091065;23;96618;-74
2021/12/14 05:04:50;;;;;;;18.75;12.02;;;;;;;13.49;53.63;102138.63;6090623;23;96852;-73
2021/12/14 05:07:58;;;;;;;16.17;10.68;;;;;;;13.48;54.11;102152.81;6090662;23;99030;-73
2021/12/14 05:10:24;;;;;;;21.08;11.73;;;;;;;13.33;54.04;102158.50;6090741;23;98789;-73
2021/12/14 05:12:50;;;;;;;21.95;10.95;;;;;;;13.43;53.96;102155.59;6091399;23;96947;-73
2021/12/14 05:15:17;;;;;;;20.88;10.93;;;;;;;13.61;53.42;102156.91;6090148;23;97078;-73
2021/12/14 05:17:46;;;;;;;22.42;11.85;;;;;;;13.52;53.38;102165.13;6090769;23;99111;-72
2021/12/14 05:20:16;;;;;;;14.90;10.13;;;;;;;13.48;53.79;102172.28;6090692;23;98825;-72
2021/12/14 05:22:45;;;;;;;19.55;11.02;;;;;;;13.47;53.43;102177.63;6091838;23;96695;-72
2021/12/14 05:25:16;;;;;;;18.42;11.55;;;;;;;13.46;53.55;102178.53;6090574;23;96695;-73
2021/12/14 05:27:45;;;;;;;19.58;10.98;;;;;;;13.42;53.75;102184.84;6091385;23;99103;-72
2021/12/14 05:30:16;;;;;;;21.48;11.70;;;;;;;13.42;53.69;102182.19;6091048;23;97724;-72
2021/12/14 05:32:43;;;;;;;17.60;11.68;;;;;;;13.52;53.31;102186.38;6091268;23;96611;-73
2021/12/14 05:35:13;;;;;;;18.75;10.27;;;;;;;13.33;53.96;102187.69;6092782;23;96808;-72
2021/12/14 05:37:46;;;;;;;16.33;10.23;;;;;;;13.43;53.95;102178.63;6094702;23;98929;-73
2021/12/14 05:40:22;;;;;;;19.42;10.50;;;;;;;13.38;53.60;102177.88;6096816;23;99097;-73
2021/12/14 05:43:07;;;;;;;21.48;11.43;;;;;;;13.31;53.81;102181.56;6095878;23;96936;-72
2021/12/14 05:45:37;;;;;;;17.85;10.73;;;;;;;13.22;54.18;102181.78;6093577;23;96730;-72
2021/12/14 05:48:05;;;;;;;20.83;12.82;;;;;;;13.12;54.00;102184.66;6093156;23;99001;-72
2021/12/14 05:50:33;;;;;;;19.83;11.25;;;;;;;13.23;53.91;102176.44;6093374;23;99014;-72
2021/12/14 05:53:03;;;;;;;18.85;10.68;;;;;;;13.34;53.68;102182.34;6092646;23;96664;-73
2021/12/14 05:55:34;;;;;;;18.90;10.93;;;;;;;13.36;53.47;102169.06;6092525;23;96832;-73
2021/12/14 05:58:01;;;;;;;17.67;10.18;;;;;;;13.36;53.24;102175.25;6090794;23;99185;-74
2021/12/14 06:00:31;;;;;;;17.85;10.40;;;;;;;12.99;54.04;102174.34;6091770;23;99381;-74
2021/12/14 06:02:57;;;;;;;21.77;10.27;;;;;;;13.19;53.93;102173.91;6091461;23;97184;-73
2021/12/14 06:05:28;;;;;;;15.65;9.88;;;;;;;13.01;54.62;102167.19;6091960;23;96784;-74
2021/12/14 06:07:55;;;;;;;16.27;9.35;;;;;;;13.06;53.91;102170.63;6091477;23;98306;-73
2021/12/14 06:10:24;;;;;;;17.30;10.57;;;;;;;13.09;54.37;102175.84;6092231;23;98783;-73
2021/12/14 06:12:51;;;;;;;15.13;9.98;;;;;;;13.31;53.68;102176.25;6093417;23;97051;-73
2021/12/14 06:15:25;;;;;;;15.25;9.38;;;;;;;13.33;53.32;102174.41;6094091;23;96888;-74
2021/12/14 06:17:52;;;;;;;17.83;9.95;;;;;;;13.23;53.67;102163.16;6093123;23;99491;-74
2021/12/14 06:20:21;;;;;;;18.38;10.48;;;;;;;13.23;53.58;102172.91;6093145;23;98944;-74
2021/12/14 06:22:50;;;;;;;19.33;10.80;;;;;;;13.34;53.31;102165.56;6092482;23;97121;-73
2021/12/14 06:25:20;;;;;;;17.17;9.00;;;;;;;13.34;53.17;102160.25;6090890;23;96913;-74
2021/12/14 06:27:50;;;;;;;20.00;9.93;;;;;;;13.29;53.27;102160.38;6091342;23;98287;-74
2021/12/14 06:30:19;;;;;;;18.38;10.23;;;;;;;13.30;53.39;102153.28;6089897;23;97748;-74
2021/12/14 06:32:48;;;;;;;16.10;9.93;;;;;;;13.41;53.21;102148.56;6090379;23;96574;-74
2021/12/14 06:35:19;;;;;;;15.88;10.13;;;;;;;13.15;52.99;102150.06;6090237;23;96988;-75
2021/12/14 06:38:21;;;;;;;19.30;9.63;;;;;;;13.27;53.46;102148.03;6090706;23;98962;-73
2021/12/14 06:40:52;;;;;;;15.73;8.77;;;;;;;13.21;53.51;102137.56;6091180;23;98721;-75
2021/12/14 06:43:22;;;;;;;14.70;8.80;;;;;;;13.29;53.15;102152.41;6091072;23;96682;-74
2021/12/14 06:45:55;;;;;;;19.92;10.38;;;;;;;13.24;53.64;102137.50;6090994;23;96710;-74
2021/12/14 06:48:24;;;;;;;15.27;9.18;;;;;;;13.24;53.71;102140.16;6089028;23;99379;-76
2021/12/14 06:50:55;;;;;;;18.00;9.43;;;;;;;13.32;53.13;102146.16;6091263;23;99131;-74
2021/12/14 06:53:22;;;;;;;17.02;9.15;;;;;;;13.14;53.33;102150.09;6094073;23;96682;-75
2021/12/14 06:55:50;;;;;;;17.13;9.05;;;;;;;13.31;53.14;102149.72;6091661;23;97043;-75
2021/12/14 06:58:19;;;;;;;14.35;8.63;;;;;;;13.30;52.93;102153.28;6090450;23;98905;-75
2021/12/14 07:00:50;;;;;;;14.75;8.80;;;;;;;13.24;53.01;102145.47;6093113;23;98513;-74
2021/12/14 07:03:17;;;;;;;16.90;8.90;;;;;;;13.11;53.16;102148.38;6098922;23;96955;-75
2021/12/14 07:05:47;;;;;;;16.02;8.73;;;;;;;13.10;53.59;102146.63;6095147;23;97229;-73
2021/12/14 07:08:24;;;;;;;16.05;8.80;;;;;;;12.97;53.23;102134.56;6093526;23;99224;-74
2021/12/14 07:10:52;;;;;;;13.85;8.93;;;;;;;13.24;52.70;102142.81;6088809;23;98924;-72
2021/12/14 07:13:23;;;;;;;18.38;9.48;;;;;;;13.23;53.22;102149.91;6090739;23;97101;-72
2021/12/14 07:15:52;;;;;;;18.65;9.52;;;;;;;13.22;53.12;102152.59;6091933;23;97160;-73
2021/12/14 07:18:24;;;;;;;14.23;9.13;;;;;;;13.05;53.81;102159.16;6090365;23;98907;-73
2021/12/14 07:20:51;;;;;;;17.38;9.55;;;;;;;13.20;53.29;102165.88;6090977;23;99998;-72
2021/12/14 07:23:27;;;;;;;14.75;9.00;;;;;;;13.03;54.10;102163.59;6091293;23;97060;-73
2021/12/14 07:25:57;;;;;;;18.93;9.60;;;;;;;13.32;53.16;102173.59;6091981;23;96674;-74
2021/12/14 07:28:24;;;;;;;14.63;8.82;;;;;;;13.22;53.30;102179.13;6090881;23;99979;-75
2021/12/14 07:30:54;;;;;;;12.85;8.52;;;;;;;13.17;53.08;102179.25;6091842;23;98828;-74
2021/12/14 07:33:23;;;;;;;13.48;8.73;;;;;;;13.02;53.50;102174.25;6100486;23;96578;-73
2021/12/14 07:35:54;;;;;;;14.68;8.77;;;;;;;13.13;53.69;102185.50;6112575;23;96583;-74
2021/12/14 07:38:32;;;;;;;14.45;9.18;;;;;;;13.27;53.27;102175.44;6105017;23;98055;-73
2021/12/14 07:41:03;;;;;;;13.75;8.82;;;;;;;13.35;53.04;102180.56;6101831;23;99386;-74
2021/12/14 07:43:33;;;;;;;14.95;9.10;;;;;;;13.40;52.76;102184.84;6102605;23;96937;-74
2021/12/14 07:46:03;;;;;;;14.27;8.90;;;;;;;13.15;53.30;102183.72;6106872;23;96750;-75
2021/12/14 07:48:43;;;;;;;13.77;8.75;;;;;;;12.92;54.10;102194.84;6098805;23;97870;-74
2021/12/14 07:51:10;;;;;;;15.57;9.20;;;;;;;13.13;53.86;102183.72;6091067;23;98738;-74
2021/12/14 07:53:41;;;;;;;16.25;9.27;;;;;;;13.11;53.21;102196.16;6092276;23;97333;-74
2021/12/14 07:56:10;;;;;;;25.73;15.38;;;;;;;13.38;52.79;102194.66;6090954;23;96769;-72
2021/12/14 07:58:41;;;;;;;16.42;9.50;;;;;;;13.44;53.16;102188.34;6090923;23;99689;-73
2021/12/14 08:01:10;;;;;;;17.08;9.20;;;;;;;13.25;53.15;102187.91;6089077;23;99358;-74
2021/12/14 08:03:39;;;;;;;14.65;9.27;;;;;;;13.25;53.26;102189.69;6088877;23;96629;-73
2021/12/14 08:06:08;;;;;;;16.15;9.10;;;;;;;13.43;52.76;102200.72;6091183;23;97132;-74
2021/12/14 08:08:44;;;;;;;16.08;9.68;;;;;;;13.16;52.86;102199.59;6090979;23;99522;-73
2021/12/14 08:11:30;;;;;;;14.73;9.15;;;;;;;13.42;52.69;102190.13;6088693;23;98850;-74
2021/12/14 08:13:59;;;;;;;18.02;9.52;;;;;;;13.23;53.03;102192.38;6091279;23;96632;-73
2021/12/14 08:16:27;;;;;;;17.67;9.55;;;;;;;13.25;53.09;102198.53;6090982;23;97261;-74
2021/12/14 08:18:53;;;;;;;15.80;9.60;;;;;;;13.44;52.79;102188.34;6091015;23;98939;-74
2021/12/14 08:21:24;;;;;;;17.48;10.60;;;;;;;13.69;52.25;102188.59;6091533;23;98940;-75
2021/12/14 08:23:53;;;;;;;16.65;9.35;;;;;;;13.57;52.55;102198.63;6091426;23;96556;-74
2021/12/14 08:26:23;;;;;;;16.70;9.68;;;;;;;13.60;52.21;102212.72;6090662;23;96905;-73
2021/12/14 08:28:52;;;;;;;16.98;9.38;;;;;;;13.50;52.64;102218.25;6090705;23;98872;-74
2021/12/14 08:31:20;;;;;;;17.23;9.43;;;;;;;13.63;52.04;102215.31;6090739;23;98721;-73
2021/12/14 08:33:54;;;;;;;14.07;8.95;;;;;;;13.24;52.95;102220.66;6091952;23;96745;-73
2021/12/14 08:36:22;;;;;;;15.75;9.85;;;;;;;13.06;53.33;102211.28;6089232;23;96733;-75
2021/12/14 08:39:00;;;;;;;19.10;9.95;;;;;;;12.99;53.88;102212.34;6090394;23;99152;-72
2021/12/14 08:41:27;;;;;;;20.00;9.90;;;;;;;13.04;53.32;102217.56;6091466;23;98758;-74
2021/12/14 08:43:55;;;;;;;21.17;11.63;;;;;;;13.17;53.55;102219.06;6091577;23;97009;-74
2021/12/14 08:46:25;;;;;;;14.48;10.20;;;;;;;13.19;53.39;102224.34;6091588;23;96827;-73
2021/12/14 08:48:57;;;;;;;15.55;9.90;;;;;;;13.25;53.11;102232.16;6090992;23;100179;-73
2021/12/14 08:51:28;;;;;;;20.65;11.55;;;;;;;13.02;53.32;102224.66;6090707;23;99095;-74
2021/12/14 08:53:59;;;;;;;15.70;9.85;;;;;;;13.16;53.56;102231.44;6091685;23;96668;-73
2021/12/14 08:56:28;;;;;;;20.23;10.50;;;;;;;13.04;53.11;102231.69;6091162;23;97171;-74
2021/12/14 08:58:55;;;;;;;18.38;9.73;;;;;;;13.07;53.64;102222.78;6091055;23;99131;-73
2021/12/14 09:01:26;;;;;;;20.25;10.38;;;;;;;13.09;53.03;102227.16;6091730;23;98739;-73
2021/12/14 09:03:58;;;;;;;16.85;9.40;;;;;;;13.07;53.46;102220.13;6085713;23;96823;-74
2021/12/14 09:06:30;;;;;;;20.70;10.77;;;;;;;13.22;53.23;102217.16;6091539;23;96870;-73
2021/12/14 09:09:00;;;;;;;19.38;10.80;;;;;;;13.44;52.60;102202.47;6090776;23;99038;-74
2021/12/14 09:11:28;;;;;;;18.70;9.95;;;;;;;13.56;52.28;102204.84;6089978;23;100285;-73
2021/12/14 09:13:56;;;;;;;17.80;10.40;;;;;;;13.43;52.28;102202.50;6090306;23;96586;-72
2021/12/14 09:16:26;;;;;;;19.85;11.65;;;;;;;13.62;52.12;102198.50;6091255;23;96701;-73
2021/12/14 11:18:20;;;;;;;26.70;15.95;;;;;;;13.82;49.76;102155.47;6079664;23;98905;-81
2021/12/14 12:59:54;;;;;;;;;;;;;;;;;;;;;
2021/12/14 13:03:25;;;;;;;;;;;;;;;;;;;;;
2021/12/14 13:06:46;;;;;;;;;;;;;;;;;;;;;
2021/12/14 13:09:58;;;;;;;14.95;10.20;;;;;;;13.74;50.60;102126.44;5972262;23;119539;-79
2021/12/14 13:13:01;;;;;;;;;;;;;;;;;;;;;
2021/12/14 13:19:13;;;;;;;;;;;;;;;;;;;;;
2021/12/14 16:47:53;;;;;;;;;;;;;;;;;;;;;
2021/12/14 17:03:22;;;;;;;47.23;22.30;;;;;;;13.36;59.82;102269.94;5967156;23;99921;-78
2021/12/14 21:20:02;;;;;;;63.83;28.88;;;;;;;13.60;60.45;102380.91;6103042;22;98495;-77
2021/12/14 21:22:32;;;;;;;65.03;30.08;;;;;;;13.54;60.65;102373.09;6085887;23;98757;-77
2021/12/14 21:25:01;;;;;;;63.97;29.95;;;;;;;13.21;61.68;102376.44;6088404;23;97162;-78
2021/12/14 21:27:36;;;;;;;70.32;29.52;;;;;;;13.34;61.24;102381.47;6089448;23;97139;-77
2021/12/14 21:30:08;;;;;;;66.75;29.35;;;;;;;13.38;61.67;102383.19;6089237;23;99254;-75
2021/12/14 21:32:39;;;;;;;69.43;30.73;;;;;;;13.51;61.30;102379.34;6089844;23;99253;-76
2021/12/14 21:35:20;;;;;;;67.00;30.05;;;;;;;13.43;60.88;102378.63;6088990;23;97158;-74
2021/12/14 21:37:55;;;;;;;69.15;30.58;;;;;;;13.29;61.60;102379.84;6090092;23;96967;-76
2021/12/14 21:40:44;;;;;;;67.13;29.70;;;;;;;13.55;60.82;102383.69;6088950;23;99223;-75
2021/12/14 21:43:32;;;;;;;73.88;31.92;;;;;;;13.62;60.77;102388.84;6089672;23;98807;-77
2021/12/14 21:46:07;;;;;;;;;;;;;;;13.64;60.08;102390.56;6090889;23;96756;-77
2021/12/14 21:48:34;;;;;;;74.95;31.95;;;;;;;13.50;60.80;102393.53;6090835;23;97120;-75
2021/12/14 21:51:02;;;;;;;70.30;30.45;;;;;;;13.31;60.97;102386.00;6090356;23;99168;-77
2021/12/14 21:53:28;;;;;;;68.53;29.13;;;;;;;13.49;61.34;102381.16;6089775;23;99387;-76
2021/12/14 21:55:55;;;;;;;76.80;33.05;;;;;;;13.36;61.08;102378.78;6091502;23;97213;-77
2021/12/14 21:58:22;;;;;;;67.85;31.08;;;;;;;13.28;61.83;102378.06;6091417;23;97210;-75
2021/12/14 22:00:48;;;;;;;72.00;31.45;;;;;;;13.30;61.76;102376.28;6091820;23;99538;-75
2021/12/14 22:03:15;;;;;;;65.80;30.73;;;;;;;13.54;60.74;102378.38;6092052;23;98026;-75
2021/12/14 22:05:43;;;;;;;71.15;32.30;;;;;;;13.56;60.73;102385.44;6090978;23;96693;-76
2021/12/14 22:08:19;;;;;;;65.47;32.13;;;;;;;13.51;60.58;102405.03;6090088;23;97526;-75
2021/12/14 22:10:47;;;;;;;68.07;32.08;;;;;;;13.72;60.73;102387.75;6089793;23;99286;-76
2021/12/14 22:13:13;;;;;;;66.57;31.13;;;;;;;13.78;60.09;102388.50;6091353;23;99136;-77
2021/12/14 22:15:47;;;;;;;68.13;31.40;;;;;;;13.55;60.54;102394.31;6090193;23;97199;-77
2021/12/14 22:18:15;;;;;;;69.40;32.30;;;;;;;13.68;60.36;102391.38;6091313;23;96784;-76
2021/12/14 22:20:48;;;;;;;69.30;31.52;;;;;;;13.50;60.58;102392.66;6090925;23;98936;-75
2021/12/14 22:23:18;;;;;;;71.25;33.58;;;;;;;13.61;60.10;102401.25;6091127;23;99061;-76
2021/12/14 22:25:44;;;;;;;73.60;34.55;;;;;;;13.60;60.34;102390.66;6097172;23;96668;-76
2021/12/14 22:28:11;;;;;;;73.28;32.60;;;;;;;13.50;59.94;102395.31;6099198;23;96758;-76
2021/12/14 22:30:38;;;;;;;71.38;32.10;;;;;;;13.35;61.46;102390.31;6096416;23;98390;-76
2021/12/14 22:33:07;;;;;;;75.15;33.60;;;;;;;13.57;60.79;102395.16;6103105;23;97987;-75
2021/12/14 22:35:34;;;;;;;67.22;32.65;;;;;;;13.61;60.31;102398.59;6104995;23;96521;-76
2021/12/14 22:38:01;;;;;;;66.80;32.75;;;;;;;13.86;59.65;102402.44;6111828;23;96592;-75
2021/12/14 22:40:46;;;;;;;68.03;31.35;;;;;;;13.88;59.71;102400.63;6116181;23;98212;-76
2021/12/14 22:45:56;;;;;;;70.13;33.30;;;;;;;13.71;59.77;102408.13;6118317;23;97159;-75
2021/12/14 22:48:23;;;;;;;69.78;32.42;;;;;;;13.68;60.09;102404.66;6112915;23;96550;-75
2021/12/14 22:50:49;;;;;;;66.60;33.08;;;;;;;13.87;59.47;102409.53;6110116;23;99444;-77
2021/12/14 22:53:16;;;;;;;69.25;33.75;;;;;;;13.80;59.46;102410.56;6105641;23;97937;-77
2021/12/14 22:55:44;;;;;;;67.03;31.90;;;;;;;13.88;59.51;102405.97;6098057;23;96522;-77
2021/12/14 22:58:13;;;;;;;64.80;31.83;;;;;;;13.68;59.55;102413.50;6097324;23;96767;-77
2021/12/14 23:00:43;;;;;;;66.70;33.22;;;;;;;13.55;59.77;102414.66;6095959;23;98078;-76
2021/12/14 23:03:10;;;;;;;63.28;32.55;;;;;;;13.51;60.29;102419.19;6096659;23;99027;-76
2021/12/14 23:05:37;;;;;;;67.70;32.72;;;;;;;13.32;60.44;102412.53;6101888;23;96739;-76
2021/12/14 23:08:08;;;;;;;67.07;32.83;;;;;;;12.83;63.37;102407.25;6110101;23;96726;-76
2021/12/14 23:10:35;;;;;;;69.43;33.28;;;;;;;13.14;62.02;102419.03;6101832;23;99056;-77
2021/12/14 23:13:08;;;;;;;67.65;34.08;;;;;;;13.48;60.90;102413.94;6094199;23;98938;-75
2021/12/14 23:15:47;;;;;;;68.40;34.08;;;;;;;13.41;60.90;102419.41;6096686;23;96851;-76
2021/12/14 23:18:28;;;;;;;66.32;33.67;;;;;;;13.47;60.77;102412.19;6100144;23;96648;-75
2021/12/14 23:20:57;;;;;;;73.05;36.88;;;;;;;13.52;60.30;102415.59;6097804;23;97904;-75
2021/12/14 23:23:24;;;;;;;72.78;34.25;;;;;;;13.70;59.81;102414.34;6097289;23;99266;-76
2021/12/14 23:25:52;;;;;;;78.28;35.25;;;;;;;13.66;60.01;102411.78;6096306;23;96904;-76
2021/12/14 23:28:20;;;;;;;71.22;33.88;;;;;;;13.69;59.83;102404.63;6096798;23;96766;-75